This is the latest recevied weather packets stored in our database for station/object VA2IEI-13. If no packets are shown the sender has not sent any weather packets the latest 10 day(s).
| Time | Temp. | Humidity | Pressure | Rain* | Wind** | Luminosity | Snow |
|---|---|---|---|---|---|---|---|
| 1777369279 | 7.22° C | 80% | 1023.5 hPa | 0 mm | - | - | - |
| 1777368086 | 7.78° C | 79% | 1023.9 hPa | 0 mm | - | - | - |
| 1777364427 | 8.89° C | 71% | 1024 hPa | 0 mm | - | - | - |
| 1777363821 | 8.89° C | 71% | 1024 hPa | 0 mm | - | - | - |
| 1777360274 | 9.44° C | 71% | 1023.9 hPa | 0 mm | - | - | - |
| 1777356026 | 10.56° C | 67% | 1024.3 hPa | 0 mm | - | - | - |
| 1777354208 | 10° C | 67% | 1024.6 hPa | 0 mm | - | - | - |
| 1777350044 | 12.22° C | 59% | 1025.2 hPa | 0 mm | - | - | - |
| 1777348231 | 12.78° C | 55% | 1025.4 hPa | 0 mm | - | - | - |
| 1777347044 | 12.78° C | 54% | 1025.6 hPa | 0 mm | - | - | - |
| 1777341639 | 13.89° C | 53% | 1025.7 hPa | 0 mm | - | - | - |
| 1777340429 | 15° C | 50% | 1025.7 hPa | 0 mm | - | - | - |
| 1777339221 | 15.56° C | 47% | 1025.7 hPa | 0 mm | - | - | - |
| 1777338638 | 16.11° C | 46% | 1025.6 hPa | 0 mm | - | - | - |
| 1777338081 | 16.67° C | 44% | 1025.5 hPa | 0 mm | - | - | - |
| 1777337497 | 16.67° C | 44% | 1025.4 hPa | 0 mm | - | - | - |
| 1777335651 | 18.33° C | 43% | 1025.1 hPa | 0 mm | - | - | - |
| 1777335047 | 18.33° C | 38% | 1025 hPa | 0 mm | - | - | - |
| 1777333839 | 20° C | 36% | 1024.8 hPa | 0 mm | - | - | - |
| 1777332025 | 22.22° C | 31% | 1024.8 hPa | 0 mm | - | - | - |
| 1777329624 | 23.89° C | 28% | 1025.1 hPa | 0 mm | - | - | - |
| 1777328480 | 24.44° C | 28% | 1025.1 hPa | 0 mm | - | - | - |
| 1777326662 | 23.89° C | 27% | 1025.3 hPa | 0 mm | - | - | - |
| 1777325454 | 23.89° C | 28% | 1025.2 hPa | 0 mm | - | - | - |
| 1777323644 | 24.44° C | 29% | 1025.4 hPa | 0 mm | - | - | - |
* Rain latest hour (hover to see other rain measurements)
** Current wind speed in m/s (hover to see current wind gust speed)